createdAt,value
2018-06-06T00:02:24.030Z,97147.62
2018-06-06T00:04:52.692Z,97153.69
2018-06-06T00:07:21.198Z,97156.19
2018-06-06T00:09:49.728Z,97157.08
2018-06-06T00:12:18.371Z,97157.66
2018-06-06T00:14:46.865Z,97154.70
2018-06-06T00:17:15.805Z,97148.58
2018-06-06T00:19:44.299Z,97145.05
2018-06-06T00:22:13.176Z,97142.72
2018-06-06T00:24:41.958Z,97143.14
2018-06-06T00:27:10.466Z,97139.44
2018-06-06T00:29:38.965Z,97148.23
2018-06-06T00:32:07.574Z,97141.15
2018-06-06T00:34:36.088Z,97135.02
2018-06-06T00:37:05.224Z,97131.49
2018-06-06T00:39:34.020Z,97130.12
2018-06-06T00:42:02.492Z,97131.86
2018-06-06T00:44:30.977Z,97131.48
2018-06-06T00:47:00.549Z,97127.27
2018-06-06T00:49:29.066Z,97132.95
2018-06-06T00:51:57.581Z,97133.91
2018-06-06T00:54:26.057Z,97132.91
2018-06-06T00:56:54.916Z,97123.14
2018-06-06T00:59:23.416Z,97121.39
2018-06-06T01:01:51.981Z,97129.72
2018-06-06T01:04:20.454Z,97123.62
2018-06-06T01:06:49.008Z,97132.05
2018-06-06T01:09:17.515Z,97126.84
2018-06-06T01:11:46.077Z,97122.53
2018-06-06T01:14:15.119Z,97125.39
2018-06-06T01:16:43.645Z,97121.87
2018-06-06T01:19:12.177Z,97125.77
2018-06-06T01:21:40.635Z,97122.72
2018-06-06T01:24:09.085Z,97122.83
2018-06-06T01:26:37.598Z,97124.20
2018-06-06T01:29:06.644Z,97121.83
2018-06-06T01:31:35.332Z,97123.39
2018-06-06T01:34:03.878Z,97122.45
2018-06-06T01:36:32.392Z,97117.09
2018-06-06T01:39:00.935Z,97119.78
2018-06-06T01:41:30.118Z,97125.61
2018-06-06T01:43:58.615Z,97131.00
2018-06-06T01:46:27.094Z,97129.63
2018-06-06T01:48:55.686Z,97132.95
2018-06-06T01:51:24.147Z,97130.00
2018-06-06T01:53:52.748Z,97138.20
2018-06-06T01:56:21.231Z,97134.03
2018-06-06T01:58:49.717Z,97131.20
2018-06-06T02:01:18.887Z,97131.55
2018-06-06T02:03:47.433Z,97130.91
2018-06-06T02:06:15.980Z,97135.37
2018-06-06T02:08:44.535Z,97132.23
2018-06-06T02:11:13.768Z,97131.73
2018-06-06T02:13:42.556Z,97136.80
2018-06-06T02:16:11.184Z,97129.78
2018-06-06T02:18:39.664Z,97137.56
2018-06-06T02:21:08.299Z,97140.39
2018-06-06T02:23:36.861Z,97139.39
2018-06-06T02:26:05.580Z,97136.88
2018-06-06T02:28:34.053Z,97144.28
2018-06-06T02:31:02.890Z,97143.85
2018-06-06T02:33:31.881Z,97142.06
2018-06-06T02:36:00.482Z,97140.62
2018-06-06T02:38:28.924Z,97139.13
2018-06-06T02:40:57.472Z,97137.34
2018-06-06T02:43:25.995Z,97140.56
2018-06-06T02:45:54.478Z,97146.96
2018-06-06T02:48:22.952Z,97142.50
2018-06-06T02:50:52.109Z,97154.79
2018-06-06T02:53:20.627Z,97150.70
2018-06-06T02:55:49.120Z,97155.95
2018-06-06T02:58:18.497Z,97157.37
2018-06-06T03:00:47.191Z,97164.09
2018-06-06T03:03:15.840Z,97163.67
2018-06-06T03:05:44.543Z,97165.77
2018-06-06T03:08:13.063Z,97161.30
2018-06-06T03:10:41.591Z,97163.30
2018-06-06T03:13:10.989Z,97154.05
2018-06-06T03:15:39.426Z,97162.34
2018-06-06T03:18:07.976Z,97161.41
2018-06-06T03:20:36.481Z,97166.12
2018-06-06T03:23:04.968Z,97162.56
2018-06-06T03:25:33.462Z,97167.02
2018-06-06T03:28:02.026Z,97168.73
2018-06-06T03:30:30.797Z,97170.03
2018-06-06T03:32:59.384Z,97166.94
2018-06-06T03:35:27.889Z,97168.45
2018-06-06T03:37:56.438Z,97177.72
2018-06-06T03:40:25.103Z,97180.55
2018-06-06T03:42:53.624Z,97177.10
2018-06-06T03:45:22.118Z,97183.06
2018-06-06T03:47:50.643Z,97179.90
2018-06-06T03:50:19.788Z,97180.55
2018-06-06T03:52:48.318Z,97182.05
2018-06-06T03:55:16.911Z,97184.20
2018-06-06T03:57:45.919Z,97188.73
2018-06-06T04:00:14.588Z,97191.24
2018-06-06T04:02:43.224Z,97194.04
2018-06-06T04:05:11.732Z,97195.26
2018-06-06T04:07:40.250Z,97197.20
2018-06-06T04:10:09.518Z,97201.80
2018-06-06T04:12:38.034Z,97203.20
2018-06-06T04:15:06.562Z,97203.27
2018-06-06T04:17:35.063Z,97206.87
2018-06-06T04:20:04.244Z,97211.75
2018-06-06T04:22:32.893Z,97208.45
2018-06-06T04:25:01.600Z,97213.05
2018-06-06T04:27:30.061Z,97214.45
2018-06-06T04:29:58.561Z,97215.09
2018-06-06T04:32:27.114Z,97217.10
2018-06-06T04:34:55.637Z,97214.23
2018-06-06T04:37:24.145Z,97214.73
2018-06-06T04:39:52.764Z,97210.56
2018-06-06T04:42:21.279Z,97216.88
2018-06-06T04:44:49.749Z,97218.07
2018-06-06T04:47:18.362Z,97222.88
2018-06-06T04:49:46.887Z,97221.58
2018-06-06T04:52:15.325Z,97223.05
2018-06-06T04:54:43.868Z,97220.02
2018-06-06T04:57:12.647Z,97231.72
2018-06-06T04:59:41.104Z,97234.00
2018-06-06T05:02:09.599Z,97230.61
2018-06-06T05:04:38.087Z,97233.22
2018-06-06T05:07:06.160Z,97232.19
2018-06-06T05:09:34.880Z,97233.04
2018-06-06T05:12:03.632Z,97240.91
2018-06-06T05:14:32.072Z,97236.75
2018-06-06T05:17:00.909Z,97241.91
2018-06-06T05:19:29.959Z,97240.08
2018-06-06T05:21:58.477Z,97243.63
2018-06-06T05:24:26.916Z,97248.16
2018-06-06T05:26:55.458Z,97244.20
2018-06-06T05:29:24.930Z,97255.68
2018-06-06T05:31:54.233Z,97260.99
2018-06-06T05:34:22.750Z,97258.71
2018-06-06T05:36:51.266Z,97259.29
2018-06-06T05:39:19.737Z,97254.75
2018-06-06T05:41:48.372Z,97256.63
2018-06-06T05:44:16.851Z,97256.05
2018-06-06T05:46:45.288Z,97253.86
2018-06-06T05:49:13.806Z,97253.82
2018-06-06T05:51:42.315Z,97248.42
2018-06-06T05:54:11.485Z,97248.95
2018-06-06T05:56:40.036Z,97249.16
2018-06-06T05:59:08.668Z,97252.02
2018-06-06T06:01:37.100Z,97253.73
2018-06-06T06:04:06.018Z,97254.01
2018-06-06T06:06:34.522Z,97255.36
2018-06-06T06:09:03.537Z,97257.78
2018-06-06T06:11:32.014Z,97261.40
2018-06-06T06:14:00.847Z,97259.92
2018-06-06T06:16:29.381Z,97262.44
2018-06-06T06:18:58.346Z,97269.98
2018-06-06T06:21:26.931Z,97268.01
2018-06-06T06:23:56.157Z,97266.98
2018-06-06T06:26:25.294Z,97272.48
2018-06-06T06:28:53.904Z,97267.64
2018-06-06T06:31:23.470Z,97272.70
2018-06-06T06:33:51.958Z,97273.92
2018-06-06T06:36:20.499Z,97271.23
2018-06-06T06:38:49.044Z,97270.03
2018-06-06T06:41:17.510Z,97275.02
2018-06-06T06:43:46.082Z,97268.83
2018-06-06T06:46:14.526Z,97266.57
2018-06-06T06:48:43.354Z,97268.61
2018-06-06T06:51:11.848Z,97273.27
2018-06-06T06:53:40.696Z,97253.41
2018-06-06T06:56:09.631Z,97273.88
2018-06-06T06:58:38.279Z,97274.72
2018-06-06T07:01:07.051Z,97274.22
2018-06-06T07:03:35.633Z,97280.13
2018-06-06T07:06:04.386Z,97272.98
2018-06-06T07:08:33.060Z,97271.29
2018-06-06T07:11:01.497Z,97275.69
2018-06-06T07:13:30.013Z,97271.17
2018-06-06T07:15:58.947Z,97275.25
2018-06-06T07:18:27.401Z,97277.06
2018-06-06T07:20:55.903Z,97277.91
2018-06-06T07:23:24.363Z,97274.49
2018-06-06T07:25:53.123Z,97273.17
2018-06-06T07:28:21.685Z,97276.47
2018-06-06T07:30:50.723Z,97272.61
2018-06-06T07:33:19.234Z,97277.49
2018-06-06T07:35:48.340Z,97275.75
2018-06-06T07:38:16.855Z,97274.63
2018-06-06T07:40:45.426Z,97274.06
2018-06-06T07:43:13.887Z,97277.36
2018-06-06T07:45:42.344Z,97272.27
2018-06-06T07:48:10.848Z,97268.17
2018-06-06T07:50:40.071Z,97275.50
2018-06-06T07:53:08.580Z,97270.41
2018-06-06T07:55:37.233Z,97277.89
2018-06-06T07:58:05.928Z,97278.86
2018-06-06T08:00:34.355Z,97280.06
2018-06-06T08:03:02.853Z,97286.36
2018-06-06T08:05:31.327Z,97282.23
2018-06-06T08:07:59.872Z,97280.45
2018-06-06T08:10:28.344Z,97283.22
2018-06-06T08:12:56.899Z,97279.31
2018-06-06T08:15:25.401Z,97277.95
2018-06-06T08:17:53.908Z,97279.51
2018-06-06T08:20:23.090Z,97278.10
2018-06-06T08:22:52.586Z,97277.67
2018-06-06T08:25:21.603Z,97276.69
2018-06-06T08:27:50.125Z,97273.58
2018-06-06T08:30:18.807Z,97279.83
2018-06-06T08:32:47.275Z,97282.38
2018-06-06T08:35:15.780Z,97276.88
2018-06-06T08:37:44.390Z,97284.87
2018-06-06T08:40:12.887Z,97288.69
2018-06-06T08:42:41.597Z,97292.08
2018-06-06T08:45:10.238Z,97287.69
2018-06-06T08:47:38.839Z,97296.95
2018-06-06T08:50:14.121Z,97289.52
2018-06-06T08:52:42.725Z,97293.16
2018-06-06T08:55:11.275Z,97291.55
2018-06-06T08:57:39.880Z,97285.95
2018-06-06T09:00:08.402Z,97286.12
2018-06-06T09:02:37.828Z,97294.42
2018-06-06T09:05:06.409Z,97296.64
2018-06-06T09:07:34.945Z,97296.56
2018-06-06T09:10:03.444Z,97292.68
2018-06-06T09:12:31.932Z,97291.44
2018-06-06T09:15:00.393Z,97296.61
2018-06-06T09:17:29.330Z,97305.10
2018-06-06T09:19:57.793Z,97301.27
2018-06-06T09:22:26.262Z,97298.52
2018-06-06T09:24:54.746Z,97313.17
2018-06-06T09:27:23.716Z,97312.99
2018-06-06T09:29:52.167Z,97305.60
2018-06-06T09:32:20.954Z,97306.25
2018-06-06T09:34:49.458Z,97305.89
2018-06-06T09:37:17.897Z,97308.41
2018-06-06T09:39:46.455Z,97314.55
2018-06-06T09:42:14.940Z,97311.55
2018-06-06T09:44:43.630Z,97310.04
2018-06-06T09:47:12.103Z,97308.59
2018-06-06T09:49:40.714Z,97310.84
2018-06-06T09:52:09.188Z,97307.92
2018-06-06T09:54:37.733Z,97310.31
2018-06-06T09:57:06.756Z,97304.55
2018-06-06T09:59:35.315Z,97304.97
2018-06-06T10:02:03.877Z,97302.39
2018-06-06T10:04:32.549Z,97306.83
2018-06-06T10:07:01.076Z,97311.88
2018-06-06T10:09:29.509Z,97305.52
2018-06-06T10:11:58.142Z,97303.05
2018-06-06T10:14:26.628Z,97308.92
2018-06-06T10:16:55.146Z,97311.02
2018-06-06T10:19:23.739Z,97310.87
2018-06-06T10:21:52.230Z,97303.72
2018-06-06T10:24:20.774Z,97305.89
2018-06-06T10:26:49.470Z,97302.16
2018-06-06T10:29:17.959Z,97299.67
2018-06-06T10:31:46.464Z,97299.64
2018-06-06T10:34:15.055Z,97293.48
2018-06-06T10:36:43.556Z,97292.89
2018-06-06T10:39:12.094Z,97295.04
2018-06-06T10:41:40.602Z,97303.66
2018-06-06T10:44:09.857Z,97289.69
2018-06-06T10:46:38.306Z,97293.09
2018-06-06T10:49:06.803Z,97288.92
2018-06-06T10:51:35.588Z,97292.02
2018-06-06T10:54:04.768Z,97297.47
2018-06-06T10:56:33.367Z,97292.91
2018-06-06T10:59:01.931Z,97293.07
2018-06-06T11:01:30.513Z,97291.86
2018-06-06T11:03:59.001Z,97287.66
2018-06-06T11:06:27.528Z,97282.95
2018-06-06T11:08:56.183Z,97290.97
2018-06-06T11:11:24.756Z,97280.67
2018-06-06T11:13:53.699Z,97278.34
2018-06-06T11:16:22.868Z,97278.70
2018-06-06T11:18:51.760Z,97283.28
2018-06-06T11:21:20.975Z,97273.16
2018-06-06T11:23:49.533Z,97280.44
2018-06-06T11:26:18.098Z,97271.70
2018-06-06T11:28:46.651Z,97273.36
2018-06-06T11:31:15.149Z,97270.77
2018-06-06T11:33:43.655Z,97271.48
2018-06-06T11:36:12.253Z,97271.30
2018-06-06T11:38:40.733Z,97267.55
2018-06-06T11:41:09.242Z,97264.17
2018-06-06T11:43:38.186Z,97262.70
2018-06-06T11:46:06.998Z,97258.05
2018-06-06T11:48:35.574Z,97257.13
2018-06-06T11:51:04.027Z,97256.65
2018-06-06T11:53:33.260Z,97250.73
2018-06-06T11:56:01.753Z,97242.11
2018-06-06T11:58:30.275Z,97255.33
2018-06-06T12:00:59.465Z,97249.52
2018-06-06T12:03:27.893Z,97246.75
2018-06-06T12:05:57.853Z,97238.41
2018-06-06T12:08:26.311Z,97234.06
2018-06-06T12:10:55.494Z,97240.68
2018-06-06T12:13:23.947Z,97234.59
2018-06-06T12:15:52.516Z,97232.02
2018-06-06T12:18:21.098Z,97234.00
2018-06-06T12:20:49.650Z,97231.14
2018-06-06T12:23:18.186Z,97230.49
2018-06-06T12:25:46.761Z,97237.42
2018-06-06T12:28:15.370Z,97231.27
2018-06-06T12:30:43.959Z,97224.38
2018-06-06T12:33:12.432Z,97220.87
2018-06-06T12:35:41.422Z,97229.06
2018-06-06T12:38:10.405Z,97228.69
2018-06-06T12:40:39.152Z,97222.65
2018-06-06T12:43:07.645Z,97218.59
2018-06-06T12:45:36.227Z,97211.58
2018-06-06T12:48:05.120Z,97211.17
2018-06-06T12:50:33.722Z,97210.25
2018-06-06T12:53:03.764Z,97210.11
2018-06-06T12:55:32.248Z,97208.23
2018-06-06T12:58:00.889Z,97208.06
2018-06-06T13:00:29.399Z,97212.11
2018-06-06T13:02:57.953Z,97212.67
2018-06-06T13:05:26.526Z,97215.88
2018-06-06T13:07:55.073Z,97221.77
2018-06-06T13:10:23.589Z,97227.57
2018-06-06T13:12:52.136Z,97243.61
2018-06-06T13:15:20.687Z,97252.45
2018-06-06T13:17:49.163Z,97271.70
2018-06-06T13:20:18.224Z,97280.28
2018-06-06T13:22:46.823Z,97301.69
2018-06-06T13:25:15.315Z,97285.52
2018-06-06T13:27:43.909Z,97280.81
2018-06-06T13:30:12.644Z,97275.83
2018-06-06T13:32:41.362Z,97273.61
2018-06-06T13:35:09.954Z,97272.28
2018-06-06T13:37:38.510Z,97266.09
2018-06-06T13:40:07.333Z,97268.07
2018-06-06T13:42:35.842Z,97258.88
2018-06-06T13:45:04.410Z,97254.36
2018-06-06T13:47:33.037Z,97250.22
2018-06-06T13:50:01.612Z,97245.59
2018-06-06T13:52:30.426Z,97239.98
2018-06-06T13:54:58.979Z,97236.05
2018-06-06T13:57:27.509Z,97233.58
2018-06-06T13:59:56.062Z,97229.64
2018-06-06T14:02:24.548Z,97234.17
2018-06-06T14:04:53.076Z,97230.43
2018-06-06T14:07:21.766Z,97234.77
2018-06-06T14:09:50.640Z,97232.00
2018-06-06T14:12:19.199Z,97235.73
2018-06-06T14:14:47.762Z,97227.67
2018-06-06T14:17:16.406Z,97228.35
2018-06-06T14:19:45.621Z,97222.62
2018-06-06T14:22:14.147Z,97216.71
2018-06-06T14:24:43.370Z,97222.91
2018-06-06T14:27:11.993Z,97222.33
2018-06-06T14:29:40.730Z,97217.50
2018-06-06T14:32:10.347Z,97220.19
2018-06-06T14:34:38.844Z,97216.06
2018-06-06T14:37:07.528Z,97213.38
2018-06-06T14:39:36.733Z,97218.20
2018-06-06T14:42:05.627Z,97214.94
2018-06-06T14:44:34.357Z,97211.13
2018-06-06T14:47:02.897Z,97215.47
2018-06-06T14:49:31.428Z,97203.93
2018-06-06T14:51:59.939Z,97199.15
2018-06-06T14:54:28.536Z,97204.27
2018-06-06T14:56:57.018Z,97193.66
2018-06-06T14:59:25.714Z,97195.09
2018-06-06T15:01:54.317Z,97194.98
2018-06-06T15:04:24.435Z,97194.94
2018-06-06T15:06:52.992Z,97197.31
2018-06-06T15:09:21.673Z,97197.31
2018-06-06T15:11:50.884Z,97198.61
2018-06-06T15:14:19.497Z,97200.79
2018-06-06T15:16:50.868Z,97198.16
2018-06-06T15:19:21.073Z,97198.92
2018-06-06T15:21:49.663Z,97196.92
2018-06-06T15:24:18.430Z,97196.96
2018-06-06T15:26:47.364Z,97195.45
2018-06-06T15:29:16.748Z,97198.17
2018-06-06T15:31:46.596Z,97195.48
2018-06-06T15:34:15.168Z,97187.91
2018-06-06T15:36:44.005Z,97190.02
2018-06-06T15:39:14.819Z,97187.67
2018-06-06T15:41:43.541Z,97190.71
2018-06-06T15:44:12.129Z,97184.12
2018-06-06T15:46:41.369Z,97178.39
2018-06-06T15:49:10.039Z,97174.59
2018-06-06T15:51:39.320Z,97179.98
2018-06-06T15:54:08.051Z,97175.57
2018-06-06T15:56:38.388Z,97163.20
2018-06-06T15:59:07.731Z,97164.63
2018-06-06T16:01:36.400Z,97161.68
2018-06-06T16:04:05.033Z,97156.92
2018-06-06T16:06:33.701Z,97151.86
2018-06-06T16:09:02.262Z,97154.33
2018-06-06T16:11:30.779Z,97157.34
2018-06-06T16:13:59.561Z,97163.42
2018-06-06T16:16:28.237Z,97159.52
2018-06-06T16:18:56.819Z,97163.48
2018-06-06T16:21:25.948Z,97169.63
2018-06-06T16:23:54.492Z,97175.11
2018-06-06T16:26:23.555Z,97172.75
2018-06-06T16:28:52.111Z,97179.80
2018-06-06T16:31:20.908Z,97185.23
2018-06-06T16:33:49.607Z,97183.88
2018-06-06T16:36:18.314Z,97196.04
2018-06-06T16:38:47.903Z,97198.07
2018-06-06T16:41:17.020Z,97192.17
2018-06-06T16:43:45.885Z,97189.53
2018-06-06T16:46:14.476Z,97190.81
2018-06-06T16:48:43.049Z,97191.53
2018-06-06T16:51:11.882Z,97188.05
2018-06-06T16:53:40.434Z,97187.34
2018-06-06T16:56:08.930Z,97189.75
2018-06-06T16:58:37.783Z,97195.46
2018-06-06T17:01:07.006Z,97193.72
2018-06-06T17:03:35.537Z,97193.18
2018-06-06T17:06:04.219Z,97187.08
2018-06-06T17:08:34.057Z,97185.95
2018-06-06T17:11:02.598Z,97188.53
2018-06-06T17:13:31.747Z,97185.49
2018-06-06T17:16:01.155Z,97189.25
2018-06-06T17:18:29.841Z,97200.56
2018-06-06T17:20:59.309Z,97189.42
2018-06-06T17:23:28.317Z,97188.27
2018-06-06T17:25:56.808Z,97191.42
2018-06-06T17:28:26.054Z,97187.41
2018-06-06T17:30:54.731Z,97189.09
2018-06-06T17:33:24.344Z,97200.17
2018-06-06T17:35:53.179Z,97202.46
2018-06-06T17:38:21.995Z,97205.86
2018-06-06T17:40:51.168Z,97213.55
2018-06-06T17:43:20.902Z,97219.90
2018-06-06T17:46:18.644Z,97218.78
2018-06-06T17:48:48.720Z,97226.40
2018-06-06T17:51:17.886Z,97228.52
2018-06-06T17:53:46.948Z,97235.80
2018-06-06T17:56:17.688Z,97239.95
2018-06-06T17:58:46.347Z,97245.48
2018-06-06T18:01:14.971Z,97245.48
2018-06-06T18:03:43.625Z,97248.84
2018-06-06T18:06:12.683Z,97257.61
2018-06-06T18:08:42.028Z,97255.48
2018-06-06T18:11:11.512Z,97257.61
2018-06-06T18:13:40.199Z,97259.77
2018-06-06T18:16:08.775Z,97257.55
2018-06-06T18:18:37.600Z,97262.73
2018-06-06T18:21:08.738Z,97263.11
2018-06-06T18:23:37.653Z,97262.47
2018-06-06T18:26:07.447Z,97268.08
2018-06-06T18:28:40.748Z,97267.44
2018-06-06T18:31:09.364Z,97277.92
2018-06-06T18:33:38.512Z,97278.12
2018-06-06T18:36:07.694Z,97278.64
2018-06-06T18:38:36.327Z,97277.47
2018-06-06T18:41:04.965Z,97285.69
2018-06-06T18:43:34.349Z,97290.17
2018-06-06T18:46:02.963Z,97294.06
2018-06-06T18:48:31.816Z,97299.02
2018-06-06T18:51:01.234Z,97303.08
2018-06-06T18:53:29.806Z,97309.31
2018-06-06T18:55:58.320Z,97308.22
2018-06-06T18:58:27.392Z,97297.59
2018-06-06T19:00:56.607Z,97316.56
2018-06-06T19:03:26.198Z,97325.08
2018-06-06T19:05:54.821Z,97319.03
2018-06-06T19:08:23.343Z,97324.69
2018-06-06T19:10:51.966Z,97330.80
2018-06-06T19:13:21.686Z,97321.00
2018-06-06T19:15:51.282Z,97327.17
2018-06-06T19:18:20.890Z,97333.34
2018-06-06T19:20:49.439Z,97339.64
2018-06-06T19:23:18.217Z,97334.71
2018-06-06T19:25:47.647Z,97338.25
2018-06-06T19:28:16.156Z,97344.35
2018-06-06T19:30:44.666Z,97348.81
2018-06-06T19:33:13.297Z,97347.05
2018-06-06T19:35:43.106Z,97356.45
2018-06-06T19:38:11.677Z,97365.03
2018-06-06T19:40:40.610Z,97362.64
2018-06-06T19:43:10.092Z,97359.23
2018-06-06T19:45:38.678Z,97366.84
2018-06-06T19:48:07.285Z,97365.84
2018-06-06T19:50:35.941Z,97370.87
2018-06-06T19:53:04.528Z,97365.77
2018-06-06T19:55:33.138Z,97365.88
2018-06-06T19:58:01.797Z,97364.68
2018-06-06T20:00:30.371Z,97370.67
2018-06-06T20:02:58.973Z,97373.01
2018-06-06T20:05:27.814Z,97373.26
2018-06-06T20:07:56.429Z,97389.58
2018-06-06T20:10:25.631Z,97414.55
2018-06-06T20:12:54.281Z,97408.68
2018-06-06T20:15:22.913Z,97393.42
2018-06-06T20:17:51.462Z,97393.11
2018-06-06T20:20:20.415Z,97387.51
2018-06-06T20:22:49.060Z,97384.73
2018-06-06T20:25:19.629Z,97373.05
2018-06-06T20:27:49.175Z,97380.11
2018-06-06T20:30:20.366Z,97390.41
2018-06-06T20:32:49.607Z,97394.94
2018-06-06T20:35:19.423Z,97413.91
2018-06-06T20:37:48.249Z,97415.33
2018-06-06T20:40:16.729Z,97427.24
2018-06-06T20:42:45.372Z,97438.17
2018-06-06T20:45:14.796Z,97447.05
2018-06-06T20:47:44.401Z,97439.14
2018-06-06T20:50:13.983Z,97432.99
2018-06-06T20:52:43.356Z,97424.83
2018-06-06T20:55:12.753Z,97411.02
2018-06-06T20:57:41.847Z,97420.98
2018-06-06T21:00:10.648Z,97416.82
2018-06-06T21:02:40.126Z,97408.85
2018-06-06T21:05:09.136Z,97417.63
2018-06-06T21:07:38.988Z,97418.22
2018-06-06T21:10:07.865Z,97417.05
2018-06-06T21:12:36.546Z,97414.77
2018-06-06T21:15:05.310Z,97408.16
2018-06-06T21:17:37.221Z,97411.61
2018-06-06T21:20:06.728Z,97415.25
2018-06-06T21:22:40.080Z,97414.09
2018-06-06T21:25:08.648Z,97412.25
2018-06-06T21:27:39.009Z,97409.98
2018-06-06T21:30:07.526Z,97412.52
2018-06-06T21:32:36.457Z,97396.67
2018-06-06T21:35:05.029Z,97398.53
2018-06-06T21:37:35.815Z,97393.80
2018-06-06T21:40:05.394Z,97389.89
2018-06-06T21:42:34.414Z,97385.70
2018-06-06T21:45:03.056Z,97388.66
2018-06-06T21:47:31.963Z,97393.90
2018-06-06T21:50:00.957Z,97397.42
2018-06-06T21:52:29.523Z,97399.27
2018-06-06T21:54:58.132Z,97399.47
2018-06-06T21:57:26.898Z,97396.80
2018-06-06T21:59:57.160Z,97401.75
2018-06-06T22:02:26.520Z,97401.13
2018-06-06T22:04:55.380Z,97403.29
2018-06-06T22:07:24.758Z,97396.97
2018-06-06T22:09:55.419Z,97396.19
2018-06-06T22:12:25.429Z,97394.27
2018-06-06T22:14:55.166Z,97394.03
2018-06-06T22:17:23.937Z,97390.75
2018-06-06T22:19:52.473Z,97392.83
2018-06-06T22:22:21.023Z,97392.20
2018-06-06T22:24:50.829Z,97395.84
2018-06-06T22:27:19.434Z,97388.83
2018-06-06T22:29:48.307Z,97381.69
2018-06-06T22:32:18.077Z,97373.94
2018-06-06T22:34:46.609Z,97376.19
2018-06-06T22:37:15.434Z,97369.97
2018-06-06T22:39:44.272Z,97370.87
2018-06-06T22:42:13.786Z,97370.08
2018-06-06T22:44:42.574Z,97376.84
2018-06-06T22:47:13.758Z,97382.11
2018-06-06T22:49:43.357Z,97386.00
2018-06-06T22:52:12.251Z,97382.46
2018-06-06T22:54:42.535Z,97383.58
2018-06-06T22:57:12.867Z,97385.47
2018-06-06T22:59:42.634Z,97387.53
2018-06-06T23:02:11.831Z,97389.88
2018-06-06T23:04:40.361Z,97392.20
2018-06-06T23:07:08.913Z,97386.88
2018-06-06T23:09:37.406Z,97385.04
2018-06-06T23:12:05.886Z,97383.62
2018-06-06T23:14:34.449Z,97375.20
2018-06-06T23:19:39.125Z,97377.36
2018-06-06T23:22:07.654Z,97385.06
2018-06-06T23:24:36.458Z,97385.13
2018-06-06T23:27:05.600Z,97385.28
2018-06-06T23:29:34.143Z,97394.02
2018-06-06T23:32:03.794Z,97396.17
2018-06-06T23:34:32.756Z,97387.02
2018-06-06T23:37:02.548Z,97397.38
2018-06-06T23:39:31.077Z,97401.95
2018-06-06T23:41:59.852Z,97404.91
2018-06-06T23:44:28.404Z,97408.86
2018-06-06T23:46:57.522Z,97414.34
2018-06-06T23:49:26.323Z,97414.70
2018-06-06T23:51:55.217Z,97417.47
2018-06-06T23:54:30.510Z,97409.26
2018-06-06T23:56:59.251Z,97412.72
2018-06-06T23:59:27.807Z,97413.30
